This demonstration page uses our WeatherBlox Daily Observations layout. Learn more.

39.29038, -76.61219

Hourly Observations for December 7, 2017

Temp ( °F °C ) Dew Point ( °F °C ) Humidity (%) Winds ( mph kmh ) Pressure ( in mb ) Visibility ( mi km ) Precip ( " mm )
12:54 am 00:54 undefined 42 5.6 22 -5.6 45 45 undefined N/A 30.03 1017 N/A 0 0
1:54 am 01:54 undefined 43 6.1 21 -6.1 42 42 undefined N/A 30.06 1018 N/A 0 0
2:54 am 02:54 undefined 43 6.1 22 -5.6 43 43 undefined N/A 30.06 1018 N/A 0 0
3:54 am 03:54 undefined 42 5.6 22 -5.6 45 45 undefined N/A 30.03 1017 N/A 0 0
4:54 am 04:54 undefined 41 5 23 -5 49 49 undefined N/A 30.03 1017 N/A 0 0
5:54 am 05:54 undefined 40 4.4 23 -5 51 51 undefined N/A 30.06 1018 N/A 0 0
6:54 am 06:54 undefined 40 4.4 22 -5.6 49 49 undefined N/A 30.06 1018 N/A 0 0
7:54 am 07:54 undefined 41 5 22 -5.6 47 47 undefined N/A 30.09 1019 N/A 0 0
8:54 am 08:54 undefined 44 6.7 22 -5.6 41 41 undefined N/A 30.12 1020 N/A 0 0
9:54 am 09:54 undefined 45 7.2 20 -6.7 37 37 undefined N/A 30.12 1020 N/A 0 0
10:54 am 10:54 undefined 45 7.2 18 -7.8 34 34 undefined N/A 30.09 1019 N/A 0 0
11:54 am 11:54 undefined 46 7.8 18 -7.8 32 32 undefined N/A 30.09 1019 N/A 0 0
12:54 pm 12:54 undefined 47 8.3 19 -7.2 33 33 undefined N/A 30.06 1018 N/A 0 0
1:54 pm 13:54 undefined 48 8.9 18 -7.8 30 30 undefined N/A 30.03 1017 N/A 0 0
2:54 pm 14:54 undefined 48 8.9 18 -7.8 30 30 undefined N/A 30 1016 N/A 0 0
3:54 pm 15:54 undefined 47 8.3 19 -7.2 33 33 undefined N/A 30 1016 N/A 0 0
4:54 pm 16:54 undefined 47 8.3 19 -7.2 33 33 undefined N/A 30 1016 N/A 0 0
5:54 pm 17:54 undefined 47 8.3 20 -6.7 34 34 undefined N/A 30.03 1017 N/A 0 0
6:54 pm 18:54 undefined 45 7.2 21 -6.1 39 39 undefined N/A 30.03 1017 N/A 0 0
7:54 pm 19:54 undefined 45 7.2 21 -6.1 39 39 undefined N/A 30.03 1017 N/A 0 0
8:54 pm 20:54 undefined 44 6.7 22 -5.6 41 41 undefined N/A 30.03 1017 N/A 0 0

Powered by AerisWeather